This is the latest recevied weather packets stored in our database for station/object IU1FIL-23. If no packets are shown the sender has not sent any weather packets the latest 10 day(s).
| Time | Temp. | Humidity | Pressure | Rain* | Wind** | Luminosity | Snow |
|---|---|---|---|---|---|---|---|
| 1777758032 | 12.22° C | 35% | 1023.6 hPa | - | - | - | - |
| 1777757428 | 12.22° C | 35% | 1023.6 hPa | - | - | - | - |
| 1777756824 | 12.78° C | 33% | 1023.5 hPa | - | - | - | - |
| 1777756220 | 13.33° C | 31% | 1023.6 hPa | - | - | - | - |
| 1777755615 | 13.33° C | 29% | 1023.7 hPa | - | - | - | - |
| 1777755012 | 13.33° C | 30% | 1023.7 hPa | - | - | - | - |
| 1777754408 | 13.33° C | 32% | 1023.9 hPa | - | - | - | - |
| 1777753803 | 12.78° C | 32% | 1023.9 hPa | - | - | - | - |
| 1777753199 | 12.78° C | 34% | 1023.9 hPa | - | - | - | - |
| 1777752595 | 12.78° C | 39% | 1023.9 hPa | - | - | - | - |
| 1777751991 | 12.78° C | 39% | 1023.9 hPa | - | - | - | - |
| 1777751386 | 12.78° C | 39% | 1024 hPa | - | - | - | - |
| 1777750781 | 12.22° C | 40% | 1023.9 hPa | - | - | - | - |
| 1777750177 | 12.22° C | 41% | 1023.8 hPa | - | - | - | - |
| 1777749568 | 12.22° C | 39% | 1023.8 hPa | - | - | - | - |
| 1777748963 | 12.22° C | 40% | 1023.6 hPa | - | - | - | - |
| 1777748359 | 12.22° C | 41% | 1023.6 hPa | - | - | - | - |
| 1777747754 | 12.78° C | 39% | 1023.6 hPa | - | - | - | - |
| 1777747149 | 11.67° C | 42% | 1023.5 hPa | - | - | - | - |
| 1777746544 | 11.67° C | 42% | 1023.5 hPa | - | - | - | - |
| 1777745939 | 11.67° C | 42% | 1023.5 hPa | - | - | - | - |
| 1777745335 | 12.22° C | 41% | 1023.5 hPa | - | - | - | - |
| 1777744730 | 12.22° C | 41% | 1023.6 hPa | - | - | - | - |
| 1777744125 | 12.78° C | 40% | 1023.5 hPa | - | - | - | - |
| 1777743520 | 13.33° C | 38% | 1023.5 hPa | - | - | - | - |
* Rain since midnight (hover to see other rain measurements)
** Current wind speed in m/s (hover to see current wind gust speed)